Time;durP1;ratioP1;P1;durP2;ratioP2;P2;SDS_P1;SDS_P2;PMS_P1;PMS_P2;Temp;Humidity;BMP_temperature;BMP_pressure;BME280_temperature;BME280_humidity;BME280_pressure;Samples;Min_cycle;Max_cycle;Signal;HPM_P1;HPM_P2
2023/04/17 00:00:42;;;;;;;;;5.75;5.50;;;;;-147.17;100.00;22422.94;4996362;28;53857;-60
2023/04/17 00:03:10;;;;;;;;;5.75;5.25;;;;;-147.17;100.00;22422.94;5033510;28;51063;-60
2023/04/17 00:05:36;;;;;;;;;4.50;4.00;;;;;-147.17;100.00;22172.75;5002455;28;51254;-61
2023/04/17 00:08:01;;;;;;;;;5.00;5.00;;;;;-147.17;100.00;22172.75;5027810;28;51412;-60
2023/04/17 00:10:27;;;;;;;;;6.25;6.25;;;;;-147.17;100.00;22172.75;5015506;28;51087;-60
2023/04/17 00:12:52;;;;;;;;;5.00;5.00;;;;;-147.17;100.00;22673.13;5018445;28;51088;-60
2023/04/17 00:15:17;;;;;;;;;6.50;5.00;;;;;-147.17;100.00;22923.34;5024254;28;51205;-60
2023/04/17 00:17:43;;;;;;;;;5.00;4.00;;;;;-147.17;100.00;22923.34;5000712;28;51410;-59
2023/04/17 00:20:11;;;;;;;;;5.25;4.00;;;;;-147.17;100.00;22673.13;5026894;28;52388;-60
2023/04/17 00:22:37;;;;;;;;;4.25;4.25;;;;;-147.17;100.00;22673.13;5014434;28;50871;-60
2023/04/17 00:25:03;;;;;;;;;3.00;3.00;;;;;-147.17;100.00;22673.13;5027714;28;51330;-61
2023/04/17 00:27:28;;;;;;;;;4.00;4.00;;;;;-147.17;100.00;22172.75;5025740;28;51455;-60
2023/04/17 00:29:53;;;;;;;;;4.25;4.25;;;;;-147.17;100.00;21922.59;5018834;28;51645;-59
2023/04/17 00:32:19;;;;;;;;;8.25;6.50;;;;;-147.17;100.00;21422.31;5030450;28;51194;-61
2023/04/17 00:34:44;;;;;;;;;5.25;5.00;;;;;-147.17;100.00;20672.00;5024416;28;51278;-62
2023/04/17 00:37:09;;;;;;;;;4.50;4.00;;;;;-147.17;100.00;20421.94;5014067;28;51141;-59
2023/04/17 00:39:35;;;;;;;;;5.25;4.75;;;;;-147.17;100.00;19921.84;5015705;28;51194;-60
2023/04/17 00:42:01;;;;;;;;;5.00;5.00;;;;;-147.17;100.00;19671.84;5017686;28;51195;-61
2023/04/17 00:44:26;;;;;;;;;4.75;4.75;;;;;-147.17;100.00;19671.84;5019628;28;51646;-61
2023/04/17 00:46:52;;;;;;;;;5.00;5.00;;;;;-147.17;100.00;19421.84;5025759;28;51217;-61
2023/04/17 00:49:18;;;;;;;;;6.00;5.25;;;;;-147.17;100.00;19171.84;5011984;28;53364;-61
2023/04/17 00:51:44;;;;;;;;;6.75;6.75;;;;;-147.17;100.00;19171.84;5017498;28;51155;-61
2023/04/17 00:54:10;;;;;;;;;6.25;6.25;;;;;-147.17;100.00;18421.97;5025182;28;51117;-61
2023/04/17 00:56:35;;;;;;;;;5.25;5.25;;;;;-147.17;100.00;18421.97;5011515;28;51191;-60
2023/04/17 00:59:04;;;;;;;;;7.25;6.00;;;;;-147.17;100.00;17922.16;5018727;28;52772;-60
2023/04/17 01:01:30;;;;;;;;;6.00;5.00;;;;;-147.17;100.00;17172.50;5023791;28;51294;-60
2023/04/17 01:03:56;;;;;;;;;6.00;6.00;;;;;-147.17;100.00;17172.50;5020884;28;51630;-60
2023/04/17 01:06:21;;;;;;;;;4.75;4.75;;;;;-147.17;100.00;16672.84;5025454;28;51104;-60
2023/04/17 01:08:47;;;;;;;;;5.75;4.75;;;;;-147.17;100.00;16173.25;5008411;28;51305;-61
2023/04/17 01:11:12;;;;;;;;;5.00;5.00;;;;;-147.17;100.00;15673.69;5020325;28;51147;-60
2023/04/17 01:13:48;;;;;;;;;5.25;5.00;;;;;-147.17;100.00;14674.81;5031762;28;51135;-60
2023/04/17 01:16:13;;;;;;;;;3.00;3.00;;;;;-147.17;100.00;14674.81;5025178;28;51152;-60
2023/04/17 01:18:39;;;;;;;;;6.00;5.00;;;;;-147.17;100.00;14425.13;5026903;28;51077;-61
2023/04/17 01:21:04;;;;;;;;;6.00;5.75;;;;;-147.17;100.00;14175.44;5021394;28;50958;-61
2023/04/17 01:23:45;;;;;;;;;6.50;5.25;;;;;-147.17;100.00;13925.81;5002229;28;51061;-61
2023/04/17 01:26:23;;;;;;;;;8.50;6.75;;;;;-147.17;100.00;13676.16;5021482;28;51350;-61
2023/04/17 01:28:54;;;;;;;;;5.00;5.00;;;;;-147.17;100.00;12927.34;4994857;28;53667;-61
2023/04/17 01:31:20;;;;;;;;;5.75;5.75;;;;;-147.17;100.00;12428.22;5028046;28;51351;-60
2023/04/17 01:33:46;;;;;;;;;9.00;7.75;;;;;-147.17;100.00;11679.66;5019936;28;51167;-60
2023/04/17 01:36:11;;;;;;;;;6.00;6.00;;;;;-147.17;100.00;11679.66;5030677;28;51159;-59
2023/04/17 01:38:37;;;;;;;;;8.75;7.25;;;;;-147.17;100.00;11430.19;5012725;28;54233;-60
2023/04/17 01:41:08;;;;;;;;;8.25;6.25;;;;;-147.17;100.00;10681.81;5003429;28;51226;-61
2023/04/17 01:43:36;;;;;;;;;6.25;6.25;;;;;-147.17;100.00;9933.56;5012673;28;51013;-61
2023/04/17 01:46:01;;;;;;;;;7.75;6.00;;;;;-147.17;100.00;9185.47;5015411;28;51105;-60
2023/04/17 01:48:27;;;;;;;;;8.00;6.00;;;;;-147.17;100.00;8936.16;5032671;28;51041;-61
2023/04/17 01:50:52;;;;;;;;;9.00;6.00;;;;;-147.17;100.00;7939.00;5030623;28;51153;-61
2023/04/17 01:53:17;;;;;;;;;8.75;7.75;;;;;-147.17;100.00;7689.75;5020946;28;51216;-61
2023/04/17 01:55:43;;;;;;;;;7.00;7.00;;;;;-147.17;100.00;6942.09;5010685;28;51397;-60
2023/04/17 01:58:08;;;;;;;;;9.50;9.50;;;;;-147.17;100.00;6692.91;5028560;28;51896;-61
2023/04/17 02:00:34;;;;;;;;;8.00;6.75;;;;;-147.17;100.00;5945.44;5018112;28;51061;-60
2023/04/17 02:02:59;;;;;;;;;7.75;7.75;;;;;-147.17;100.00;4949.06;5031710;28;51211;-60
2023/04/17 02:05:25;;;;;;;;;9.00;6.00;;;;;-147.17;100.00;4949.06;5031900;28;51108;-61
2023/04/17 02:07:51;;;;;;;;;5.25;5.25;;;;;-147.17;100.00;4700.00;5029325;28;52785;-62
2023/04/17 02:10:16;;;;;;;;;8.50;6.75;;;;;-147.17;100.00;4201.94;5024774;28;51018;-61
2023/04/17 02:12:41;;;;;;;;;11.00;10.00;;;;;-147.17;100.00;4201.94;5024434;28;51057;-60
2023/04/17 02:15:07;;;;;;;;;6.00;6.00;;;;;-147.17;100.00;4201.94;5015760;28;51030;-60
2023/04/17 02:17:33;;;;;;;;;6.25;6.25;;;;;-147.17;100.00;3703.94;5032348;28;51188;-59
2023/04/17 02:19:58;;;;;;;;;8.75;6.50;;;;;-147.17;100.00;3454.97;5029786;28;51220;-62
2023/04/17 02:22:23;;;;;;;;;8.50;7.25;;;;;-147.17;100.00;3703.94;5017209;28;51061;-60
2023/04/17 02:24:49;;;;;;;;;11.00;9.25;;;;;-147.17;100.00;2957.06;5024343;28;50962;-60
2023/04/17 02:27:17;;;;;;;;;9.75;8.75;;;;;-147.17;100.00;2708.13;5027093;28;52747;-60
2023/04/17 02:29:42;;;;;;;;;8.00;8.00;;;;;-147.17;100.00;2459.22;5032196;28;51163;-62
2023/04/17 02:32:08;;;;;;;;;6.50;5.75;;;;;-147.17;100.00;2459.22;5031123;28;52068;-61
2023/04/17 02:34:33;;;;;;;;;10.00;10.00;;;;;-147.17;100.00;1463.72;5028676;28;51202;-61
2023/04/17 02:36:58;;;;;;;;;10.50;9.00;;;;;-147.17;100.00;966.09;5017409;28;51144;-61
2023/04/17 02:39:24;;;;;;;;;7.50;7.00;;;;;-147.17;100.00;717.28;5012725;28;51183;-61
2023/04/17 02:41:49;;;;;;;;;9.25;8.25;;;;;-147.17;100.00;219.72;5021634;28;51178;-60
2023/04/17 02:44:14;;;;;;;;;9.25;7.50;;;;;-147.17;100.00;-277.75;5017985;28;51091;-60
2023/04/17 02:46:40;;;;;;;;;8.50;6.75;;;;;-147.17;100.00;-1023.88;5012103;28;51098;-61
2023/04/17 02:49:05;;;;;;;;;9.25;8.75;;;;;-147.17;100.00;-1521.19;5016380;28;51021;-61
2023/04/17 02:51:34;;;;;;;;;9.75;9.00;;;;;-147.17;100.00;-2018.47;5031052;28;51683;-60
2023/04/17 02:53:59;;;;;;;;;11.25;10.50;;;;;-147.17;100.00;-2515.66;5004543;28;52056;-60
2023/04/17 02:56:24;;;;;;;;;10.75;9.75;;;;;-147.17;100.00;-3012.78;5030777;28;51321;-60
2023/04/17 02:58:50;;;;;;;;;8.00;8.00;;;;;-147.17;100.00;-3758.38;5029674;28;50909;-61
2023/04/17 03:01:15;;;;;;;;;9.00;8.75;;;;;-147.17;100.00;-4255.34;5024769;28;51333;-59
2023/04/17 03:03:41;;;;;;;;;0.75;0.00;;;;;-147.17;100.00;-4752.25;5032111;28;51081;-60
2023/04/17 03:06:08;;;;;;;;;9.00;8.25;;;;;-147.17;100.00;-4752.25;5021481;28;51134;-60
2023/04/17 03:08:37;;;;;;;;;12.00;10.50;;;;;-147.17;100.00;-4752.25;5015049;28;51044;-60
2023/04/17 03:11:03;;;;;;;;;8.00;8.00;;;;;-147.17;100.00;-4752.25;5017929;28;51056;-60
2023/04/17 03:13:28;;;;;;;;;9.00;8.50;;;;;-147.17;100.00;-5000.69;5034328;28;51299;-60
2023/04/17 03:15:54;;;;;;;;;7.25;5.75;;;;;-147.17;100.00;-5000.69;5030857;28;51713;-60
2023/04/17 03:18:19;;;;;;;;;10.50;10.25;;;;;-147.17;100.00;-4752.25;5017276;28;51068;-60
2023/04/17 03:20:45;;;;;;;;;11.75;11.00;;;;;-147.17;100.00;-4752.25;5019307;28;51032;-60
2023/04/17 03:23:10;;;;;;;;;11.00;10.00;;;;;-147.17;100.00;-5000.69;5028776;28;51184;-60
2023/04/17 03:25:36;;;;;;;;;9.50;8.50;;;;;-147.17;100.00;-5000.69;5014696;28;51095;-59
2023/04/17 03:28:01;;;;;;;;;10.00;10.00;;;;;-147.17;100.00;-5000.69;5034249;28;51393;-60
2023/04/17 03:30:26;;;;;;;;;9.75;9.00;;;;;-147.17;100.00;-5000.69;5033204;28;51104;-61
2023/04/17 03:32:52;;;;;;;;;11.00;9.00;;;;;-147.17;100.00;-5745.88;5031226;28;51237;-59
2023/04/17 03:35:17;;;;;;;;;10.25;10.25;;;;;-147.17;100.00;-5994.25;5021949;28;54891;-60
2023/04/17 03:37:43;;;;;;;;;10.25;10.00;;;;;-147.17;100.00;-6242.59;5033122;28;51133;-61
2023/04/17 03:40:08;;;;;;;;;11.00;9.50;;;;;-147.17;100.00;-5994.25;5015974;28;51634;-60
2023/04/17 03:42:37;;;;;;;;;11.00;9.25;;;;;-147.17;100.00;-6242.59;5028901;28;51313;-60
2023/04/17 03:45:03;;;;;;;;;13.50;12.50;;;;;-147.17;100.00;-5994.25;5014524;28;51689;-60
2023/04/17 03:47:29;;;;;;;;;9.00;9.00;;;;;-147.17;100.00;-6242.59;4997048;28;51045;-60
2023/04/17 03:49:54;;;;;;;;;11.25;9.50;;;;;-147.17;100.00;-6490.94;5025696;28;51146;-61
2023/04/17 03:52:20;;;;;;;;;9.50;9.50;;;;;-147.17;100.00;-6739.25;5032724;28;51309;-60
2023/04/17 03:54:47;;;;;;;;;12.75;11.00;;;;;-147.17;100.00;-7235.84;5026247;28;51980;-60
2023/04/17 03:57:13;;;;;;;;;9.25;9.00;;;;;-147.17;100.00;-7732.34;5031659;28;51017;-61
2023/04/17 03:59:38;;;;;;;;;12.00;11.25;;;;;-147.17;100.00;-8477.03;5026695;28;51080;-60
2023/04/17 04:02:03;;;;;;;;;13.75;12.75;;;;;-147.17;100.00;-8477.03;5030285;28;51340;-60
2023/04/17 04:04:29;;;;;;;;;11.75;11.00;;;;;-147.17;100.00;-8973.38;5031876;28;51946;-60
2023/04/17 04:06:56;;;;;;;;;13.00;12.25;;;;;-147.17;100.00;-8973.38;5026739;28;51050;-60
2023/04/17 04:09:21;;;;;;;;;9.25;9.00;;;;;-147.17;100.00;-8973.38;5034106;28;51343;-61
2023/04/17 04:11:47;;;;;;;;;12.25;11.00;;;;;-147.17;100.00;-9221.53;5015980;28;51053;-60
2023/04/17 04:14:12;;;;;;;;;11.00;10.00;;;;;-147.17;100.00;-9469.69;5033230;28;51406;-61
2023/04/17 04:16:38;;;;;;;;;14.75;14.25;;;;;-147.17;100.00;-9717.81;5010877;28;51006;-60
2023/04/17 04:19:03;;;;;;;;;13.00;11.00;;;;;-147.17;100.00;-9965.91;5024340;28;51130;-60
2023/04/17 04:21:29;;;;;;;;;13.50;11.00;;;;;-147.17;100.00;-10214.00;5030644;28;51198;-60
2023/04/17 04:23:55;;;;;;;;;15.75;14.00;;;;;-147.17;100.00;-10462.09;5025180;28;52582;-60
2023/04/17 04:26:20;;;;;;;;;9.75;9.75;;;;;-147.17;100.00;-10958.19;5031342;28;51155;-60
2023/04/17 04:28:46;;;;;;;;;10.50;9.00;;;;;-147.17;100.00;-10958.19;5032996;28;51218;-60
2023/04/17 04:31:13;;;;;;;;;16.25;15.00;;;;;-147.17;100.00;-11702.25;5031726;28;51261;-60
2023/04/17 04:33:38;;;;;;;;;9.75;9.00;;;;;-147.17;100.00;-11950.22;5022887;28;51201;-59
2023/04/17 04:36:04;;;;;;;;;16.25;14.00;;;;;-147.17;100.00;-12446.13;5022318;28;51107;-59
2023/04/17 04:38:31;;;;;;;;;15.50;14.75;;;;;-147.17;100.00;-12694.06;5025578;28;51106;-59
2023/04/17 04:41:00;;;;;;;;;15.00;14.75;;;;;-147.17;100.00;-12941.97;5028639;28;51404;-59
2023/04/17 04:43:27;;;;;;;;;16.75;16.75;;;;;-147.17;100.00;-13437.75;5023922;28;52865;-59
2023/04/17 04:45:53;;;;;;;;;17.25;15.00;;;;;-147.17;100.00;-13685.63;5027450;28;51224;-60
2023/04/17 04:48:18;;;;;;;;;17.75;15.50;;;;;-147.17;100.00;-13685.63;5026079;28;51215;-59
2023/04/17 04:50:44;;;;;;;;;15.50;15.50;;;;;-147.17;100.00;-14181.31;5033714;28;51287;-60
2023/04/17 04:53:09;;;;;;;;;16.25;15.25;;;;;-147.17;100.00;-14429.16;5031894;28;51027;-61
2023/04/17 04:55:35;;;;;;;;;42.75;38.50;;;;;-147.17;100.00;-14924.75;5026256;28;51143;-60
2023/04/17 04:58:00;;;;;;;;;17.25;16.00;;;;;-147.17;100.00;-15172.50;5024150;28;51160;-60
2023/04/17 05:00:25;;;;;;;;;20.25;17.00;;;;;-147.17;100.00;-14924.75;5028642;28;51191;-60
2023/04/17 05:02:51;;;;;;;;;14.75;14.25;;;;;-147.17;100.00;-14924.75;5018405;28;51250;-60
2023/04/17 05:05:16;;;;;;;;;16.75;16.25;;;;;-147.17;100.00;-15172.50;5028858;28;51015;-60
2023/04/17 05:07:41;;;;;;;;;17.75;17.00;;;;;-147.17;100.00;-15420.25;4997674;28;51683;-60
2023/04/17 05:10:07;;;;;;;;;20.75;19.75;;;;;-147.17;100.00;-15668.00;5023202;28;51377;-60
2023/04/17 05:12:33;;;;;;;;;24.00;22.75;;;;;-147.17;100.00;-15915.72;5013977;28;51069;-61
2023/04/17 05:14:59;;;;;;;;;15.75;15.25;;;;;-147.17;100.00;-15915.72;5014265;28;51217;-60
2023/04/17 05:17:24;;;;;;;;;19.50;16.75;;;;;-147.17;100.00;-15915.72;5032606;28;51096;-60
2023/04/17 05:19:50;;;;;;;;;19.00;18.50;;;;;-147.17;100.00;-15917.19;5029716;28;51136;-60
2023/04/17 05:22:15;;;;;;;;;23.25;21.00;;;;;-147.17;100.00;-15917.19;5024583;28;52080;-60
2023/04/17 05:24:40;;;;;;;;;24.00;22.25;;;;;-147.17;100.00;-15917.19;5031684;28;51269;-60
2023/04/17 05:27:06;;;;;;;;;19.75;18.00;;;;;-147.17;100.00;-15917.19;5017107;28;51790;-60
2023/04/17 05:29:31;;;;;;;;;20.25;20.25;;;;;-147.17;100.00;-15917.19;5023924;28;51131;-61
2023/04/17 05:31:57;;;;;;;;;19.50;18.00;;;;;-147.17;100.00;-15917.19;5026535;28;51868;-60
2023/04/17 05:34:22;;;;;;;;;28.75;24.25;;;;;-147.17;100.00;-15917.19;5019312;28;51120;-60
2023/04/17 05:36:48;;;;;;;;;22.25;19.00;;;;;-147.17;100.00;-15917.19;5025273;28;51167;-59
2023/04/17 05:39:13;;;;;;;;;22.50;20.75;;;;;-147.17;100.00;-15917.19;5024972;28;51063;-61
2023/04/17 05:41:39;;;;;;;;;19.00;17.75;;;;;-147.17;100.00;-15917.19;5027450;28;51699;-61
2023/04/17 05:44:05;;;;;;;;;20.50;20.00;;;;;-147.17;100.00;-15917.19;5031365;28;51190;-61
2023/04/17 05:46:30;;;;;;;;;20.00;19.00;;;;;-147.17;100.00;-15917.19;5025606;28;50897;-60
2023/04/17 05:48:56;;;;;;;;;22.25;21.00;;;;;-147.17;100.00;-15917.19;5018058;28;51499;-59
2023/04/17 05:51:21;;;;;;;;;19.75;19.25;;;;;-147.17;100.00;-15917.19;5022856;28;52643;-60
2023/04/17 05:53:47;;;;;;;;;22.75;22.25;;;;;-147.17;100.00;-15917.19;5030800;28;51098;-59
2023/04/17 05:56:13;;;;;;;;;25.50;24.25;;;;;-147.17;100.00;-15917.19;5022048;28;51380;-60
2023/04/17 05:58:38;;;;;;;;;27.50;23.25;;;;;-147.17;100.00;-15917.19;5019771;28;51375;-60
2023/04/17 06:01:05;;;;;;;;;24.00;23.25;;;;;-147.17;100.00;-15917.19;5015851;28;52728;-60
2023/04/17 06:03:32;;;;;;;;;28.00;26.50;;;;;-147.17;100.00;-15917.19;5026905;28;51097;-60
2023/04/17 06:05:57;;;;;;;;;17.50;17.25;;;;;-147.17;100.00;-15917.19;5012953;28;51127;-60
2023/04/17 06:08:23;;;;;;;;;24.75;23.25;;;;;-147.17;100.00;-15917.19;5025837;28;51277;-60
2023/04/17 06:10:49;;;;;;;;;27.25;23.50;;;;;-147.17;100.00;-15917.19;5011631;28;51865;-59
2023/04/17 06:13:15;;;;;;;;;24.75;22.50;;;;;-147.17;100.00;-15917.19;5012135;28;51015;-60
2023/04/17 06:15:41;;;;;;;;;30.00;28.00;;;;;-147.17;100.00;-15917.19;5011236;28;51006;-60
2023/04/17 06:18:06;;;;;;;;;24.25;23.25;;;;;-147.17;100.00;-15917.19;5032501;28;51167;-59
2023/04/17 06:20:31;;;;;;;;;29.25;22.25;;;;;-147.17;100.00;-15917.19;5032354;28;51782;-59
2023/04/17 06:22:56;;;;;;;;;31.00;27.75;;;;;-147.17;100.00;-15917.19;5031306;28;50973;-60
2023/04/17 06:25:22;;;;;;;;;33.25;28.50;;;;;-147.17;100.00;-15917.19;5031638;28;50998;-59
2023/04/17 06:27:47;;;;;;;;;25.25;23.50;;;;;-147.17;100.00;-15917.19;5031047;28;50962;-59
2023/04/17 06:30:13;;;;;;;;;29.75;27.75;;;;;-147.17;100.00;-15917.19;5031664;28;51301;-59
2023/04/17 06:32:42;;;;;;;;;29.25;28.00;;;;;-147.17;100.00;-15917.19;5031107;28;51011;-59
2023/04/17 06:35:11;;;;;;;;;30.50;26.75;;;;;-147.17;100.00;-15917.19;5031861;28;51059;-59
2023/04/17 06:37:37;;;;;;;;;28.25;27.50;;;;;-147.17;100.00;-15917.19;5031779;28;50954;-59
2023/04/17 06:40:02;;;;;;;;;33.50;30.00;;;;;-147.17;100.00;-15917.19;5031809;28;51544;-59
2023/04/17 06:42:28;;;;;;;;;29.75;27.00;;;;;-147.17;100.00;-15917.19;5025361;28;51226;-61
2023/04/17 06:44:53;;;;;;;;;26.75;26.00;;;;;-147.17;100.00;-15917.19;5034685;28;51471;-60
2023/04/17 06:47:19;;;;;;;;;33.25;28.75;;;;;-147.17;100.00;-15917.19;5034945;28;51369;-60
2023/04/17 06:49:44;;;;;;;;;26.00;24.50;;;;;-147.17;100.00;-15917.19;5033073;28;51043;-60
2023/04/17 06:52:10;;;;;;;;;33.25;31.00;;;;;-147.17;100.00;-15917.19;5034827;28;51201;-61
2023/04/17 06:54:36;;;;;;;;;34.50;31.00;;;;;-147.17;100.00;-15917.19;5028523;28;51159;-60
2023/04/17 06:57:05;;;;;;;;;33.00;31.00;;;;;-147.17;100.00;-15917.19;5023639;28;51368;-60
2023/04/17 06:59:31;;;;;;;;;36.50;34.25;;;;;-147.17;100.00;-15917.19;5034692;28;52857;-60
2023/04/17 07:01:56;;;;;;;;;41.50;35.25;;;;;-147.17;100.00;-15917.19;5035358;28;50901;-60
2023/04/17 07:04:22;;;;;;;;;11.50;9.25;;;;;-147.17;100.00;-15917.19;5035399;28;51231;-59
2023/04/17 07:06:47;;;;;;;;;32.50;31.00;;;;;-147.17;100.00;-15917.19;5010620;28;51278;-59
2023/04/17 07:09:13;;;;;;;;;35.25;32.50;;;;;-147.17;100.00;-15917.19;5030124;28;50981;-60
2023/04/17 07:11:38;;;;;;;;;35.25;34.00;;;;;-147.17;100.00;-15917.19;5034849;28;51051;-59
2023/04/17 07:14:04;;;;;;;;;34.50;30.25;;;;;-147.17;100.00;-15917.19;5034997;28;51821;-61
2023/04/17 07:16:30;;;;;;;;;36.25;35.00;;;;;-147.17;100.00;-15917.19;5016673;28;51258;-60
2023/04/17 07:18:55;;;;;;;;;43.00;35.50;;;;;-147.17;100.00;-15917.19;5029017;28;51544;-60
2023/04/17 07:21:20;;;;;;;;;39.50;35.00;;;;;-147.17;100.00;-15917.19;5033176;28;51131;-60
2023/04/17 07:23:46;;;;;;;;;43.00;34.50;;;;;-147.17;100.00;-15917.19;5026684;28;51121;-62
2023/04/17 07:26:11;;;;;;;;;32.25;30.25;;;;;-147.17;100.00;-15917.19;5034013;28;51069;-60
2023/04/17 07:28:38;;;;;;;;;30.50;28.25;;;;;-147.17;100.00;-15917.19;5034101;28;51089;-59
2023/04/17 07:31:07;;;;;;;;;28.25;24.50;;;;;-147.17;100.00;-15917.19;5034749;28;51056;-60
2023/04/17 07:33:34;;;;;;;;;38.00;34.25;;;;;-147.17;100.00;-15917.19;5034640;28;51015;-59
2023/04/17 07:36:03;;;;;;;;;38.25;34.75;;;;;-147.17;100.00;-15917.19;5034338;28;51266;-60
2023/04/17 07:38:32;;;;;;;;;43.75;34.75;;;;;-147.17;100.00;-15917.19;5034318;28;51908;-60
2023/04/17 07:40:58;;;;;;;;;33.75;33.25;;;;;-147.17;100.00;-15917.19;5033179;28;50909;-60
2023/04/17 07:43:24;;;;;;;;;35.25;30.00;;;;;-147.17;100.00;-15917.19;5031346;28;51127;-60
2023/04/17 07:45:49;;;;;;;;;33.50;33.50;;;;;-147.17;100.00;-15917.19;5029559;28;51780;-60
2023/04/17 07:48:18;;;;;;;;;34.25;30.25;;;;;-147.17;100.00;-15917.19;5032279;28;54063;-60
2023/04/17 07:50:44;;;;;;;;;48.25;35.75;;;;;-147.17;100.00;-15917.19;5004015;28;51267;-60
2023/04/17 07:53:09;;;;;;;;;37.25;34.00;;;;;-147.17;100.00;-15917.19;5021753;28;51109;-61
2023/04/17 07:55:34;;;;;;;;;31.00;29.75;;;;;-147.17;100.00;-15917.19;5025936;28;51364;-59
2023/04/17 07:58:02;;;;;;;;;41.00;34.50;;;;;-147.17;100.00;-15917.19;5033605;28;52719;-60
2023/04/17 08:00:29;;;;;;;;;43.75;35.25;;;;;-147.17;100.00;-15917.19;5017472;28;50939;-59
2023/04/17 08:02:54;;;;;;;;;39.75;35.00;;;;;-147.17;100.00;-15917.19;5032760;28;51226;-61
2023/04/17 08:05:19;;;;;;;;;33.25;31.25;;;;;-147.17;100.00;-15917.19;5023560;28;51216;-59
2023/04/17 08:07:45;;;;;;;;;43.00;37.50;;;;;-147.17;100.00;-15917.19;5026948;28;51004;-60
2023/04/17 08:10:11;;;;;;;;;39.50;32.00;;;;;-147.17;100.00;-15917.19;5004777;28;51235;-60
2023/04/17 08:12:36;;;;;;;;;35.00;32.75;;;;;-147.17;100.00;-15917.19;5029764;28;53156;-59
2023/04/17 08:15:02;;;;;;;;;38.25;34.75;;;;;-147.17;100.00;-15917.19;5026380;28;51341;-60
2023/04/17 08:17:28;;;;;;;;;39.75;33.75;;;;;-147.17;100.00;-15917.19;5024172;28;51080;-59
2023/04/17 08:19:58;;;;;;;;;30.75;27.00;;;;;-147.17;100.00;-15917.19;5022959;28;51120;-59
2023/04/17 08:22:24;;;;;;;;;37.50;33.75;;;;;-147.17;100.00;-15917.19;5029465;28;50970;-60
2023/04/17 08:24:56;;;;;;;;;34.75;32.75;;;;;-147.17;100.00;-15917.19;5033969;28;51296;-60
2023/04/17 08:27:23;;;;;;;;;39.00;33.25;;;;;-147.17;100.00;-15917.19;5032737;28;53227;-59
2023/04/17 08:29:48;;;;;;;;;35.50;33.25;;;;;-147.17;100.00;-15917.19;5015800;28;51154;-61
2023/04/17 08:32:14;;;;;;;;;40.50;35.75;;;;;-147.17;100.00;-15917.19;5031581;28;51056;-59
2023/04/17 08:34:39;;;;;;;;;43.25;35.50;;;;;-147.17;100.00;-15917.19;5033822;28;51003;-60
2023/04/17 08:37:05;;;;;;;;;51.25;44.00;;;;;-147.17;100.00;-15917.19;5032408;28;51701;-60
2023/04/17 08:39:30;;;;;;;;;43.00;36.75;;;;;-147.17;100.00;-15917.19;5021569;28;51380;-60
2023/04/17 08:42:02;;;;;;;;;47.25;40.75;;;;;-147.17;100.00;-15917.19;5008357;28;51070;-60
2023/04/17 08:44:28;;;;;;;;;35.50;32.50;;;;;-147.17;100.00;-15917.19;4996063;28;50919;-59
2023/04/17 08:46:57;;;;;;;;;50.50;41.00;;;;;-147.17;100.00;-15917.19;5012093;28;51231;-60
2023/04/17 08:49:28;;;;;;;;;44.00;37.00;;;;;-147.17;100.00;-15917.19;4994632;28;51097;-60
2023/04/17 08:51:53;;;;;;;;;45.00;39.00;;;;;-147.17;100.00;-15917.19;5032710;28;51053;-60
2023/04/17 08:54:20;;;;;;;;;44.00;38.50;;;;;-147.17;100.00;-15917.19;4997087;28;51355;-60
2023/04/17 08:56:47;;;;;;;;;41.00;36.75;;;;;-147.17;100.00;-15917.19;5032223;28;51801;-60
2023/04/17 08:59:12;;;;;;;;;50.50;41.00;;;;;-147.17;100.00;-15917.19;5015508;28;51134;-60
2023/04/17 09:01:38;;;;;;;;;47.75;38.75;;;;;-147.17;100.00;-15917.19;5032556;28;51069;-61
2023/04/17 09:04:04;;;;;;;;;42.50;37.25;;;;;-147.17;100.00;-15917.19;5032208;28;51083;-60
2023/04/17 09:06:47;;;;;;;;;51.50;42.00;;;;;-147.17;100.00;-15917.19;5032915;28;51298;-60
2023/04/17 09:09:13;;;;;;;;;52.50;40.50;;;;;-147.17;100.00;-15917.19;5032876;28;51317;-59
2023/04/17 09:11:38;;;;;;;;;44.00;37.50;;;;;-147.17;100.00;-15917.19;5032442;28;51691;-59
2023/04/17 09:14:03;;;;;;;;;50.00;39.75;;;;;-147.17;100.00;-15917.19;5033213;28;51330;-59
2023/04/17 09:16:29;;;;;;;;;40.25;36.25;;;;;-147.17;100.00;-15917.19;5033199;28;52190;-59
2023/04/17 09:19:04;;;;;;;;;47.50;38.50;;;;;-147.17;100.00;-15917.19;5028694;28;51038;-59
2023/04/17 09:21:30;;;;;;;;;39.75;36.75;;;;;-147.17;100.00;-15917.19;5033390;28;51022;-59
2023/04/17 09:23:58;;;;;;;;;48.25;39.25;;;;;-147.17;100.00;-15917.19;5032848;28;50890;-59
2023/04/17 09:26:32;;;;;;;;;47.50;38.50;;;;;-147.17;100.00;-15917.19;5032253;28;51205;-59
2023/04/17 09:29:09;;;;;;;;;46.50;38.25;;;;;-147.17;100.00;-15917.19;5032975;28;51072;-60
2023/04/17 09:31:37;;;;;;;;;46.00;38.75;;;;;-147.17;100.00;-15917.19;5032912;28;50980;-59
2023/04/17 09:34:10;;;;;;;;;46.50;38.00;;;;;-147.17;100.00;-15917.19;5013874;28;51013;-60
2023/04/17 09:36:37;;;;;;;;;44.25;37.75;;;;;-147.17;100.00;-15917.19;5012559;28;51796;-61
2023/04/17 09:39:14;;;;;;;;;48.75;39.50;;;;;-147.17;100.00;-15917.19;5012491;28;51275;-61
2023/04/17 09:41:40;;;;;;;;;46.75;40.00;;;;;-147.17;100.00;-15917.19;5012869;28;51200;-60
2023/04/17 09:44:05;;;;;;;;;46.75;39.00;;;;;-147.17;100.00;-15917.19;5013135;28;51214;-60
2023/04/17 09:46:44;;;;;;;;;49.75;38.25;;;;;-147.17;100.00;-15917.19;5012069;28;51748;-59
2023/04/17 09:49:21;;;;;;;;;39.75;35.25;;;;;-147.17;100.00;-15917.19;5022508;28;50947;-59
2023/04/17 09:51:48;;;;;;;;;45.00;36.50;;;;;-147.17;100.00;-15917.19;5032514;28;51148;-59
2023/04/17 09:54:18;;;;;;;;;48.75;41.00;;;;;-147.17;100.00;-15917.19;5029429;28;51441;-60
2023/04/17 09:56:43;;;;;;;;;51.50;42.25;;;;;-147.17;100.00;-15917.19;5017520;28;52208;-61
2023/04/17 09:59:09;;;;;;;;;42.50;37.50;;;;;-147.17;100.00;-15917.19;5032392;28;51017;-59
2023/04/17 10:01:36;;;;;;;;;48.75;38.75;;;;;-147.17;100.00;-15917.19;5032096;28;50863;-59
2023/04/17 10:04:03;;;;;;;;;43.50;38.50;;;;;-147.17;100.00;-15917.19;5014757;28;51522;-60
2023/04/17 10:06:31;;;;;;;;;46.75;39.00;;;;;-147.17;100.00;-15917.19;5031847;28;53766;-60
2023/04/17 10:08:56;;;;;;;;;44.25;37.00;;;;;-147.17;100.00;-15917.19;5032494;28;51077;-60
2023/04/17 10:11:23;;;;;;;;;46.50;39.75;;;;;-147.17;100.00;-15917.19;5031537;28;50931;-59
2023/04/17 10:14:00;;;;;;;;;50.25;39.00;;;;;-147.17;100.00;-15917.19;5010937;28;51352;-59
2023/04/17 10:16:36;;;;;;;;;47.75;40.00;;;;;-147.17;100.00;-15917.19;5031817;28;52538;-59
2023/04/17 10:19:26;;;;;;;;;47.50;38.75;;;;;-147.17;100.00;-15917.19;5031718;28;51058;-59
2023/04/17 10:22:19;;;;;;;;;43.25;38.00;;;;;-147.17;100.00;-15917.19;5032105;28;51038;-60
2023/04/17 10:24:53;;;;;;;;;55.00;41.50;;;;;-147.17;100.00;-15917.19;5032536;28;50940;-59
2023/04/17 10:27:27;;;;;;;;;48.50;38.00;;;;;-147.17;100.00;-15917.19;5031586;28;51841;-60
2023/04/17 10:29:56;;;;;;;;;51.00;41.50;;;;;-147.17;100.00;-15917.19;5031768;28;51194;-61
2023/04/17 10:32:24;;;;;;;;;47.50;38.25;;;;;-147.17;100.00;-15917.19;5031873;28;50914;-59
2023/04/17 10:34:50;;;;;;;;;48.25;36.25;;;;;-147.17;100.00;-15917.19;5032271;28;50907;-59
2023/04/17 10:37:17;;;;;;;;;45.25;38.75;;;;;-147.17;100.00;-15917.19;5031839;28;52616;-59
2023/04/17 10:40:19;;;;;;;;;50.00;40.50;;;;;-147.17;100.00;-15917.19;5031755;28;51168;-60
2023/04/17 10:43:11;;;;;;;;;46.00;39.25;;;;;-147.17;100.00;-15917.19;5022137;28;51104;-59
2023/04/17 10:46:04;;;;;;;;;51.25;39.50;;;;;-147.17;100.00;-15917.19;5020956;28;51350;-59
2023/04/17 10:48:35;;;;;;;;;50.25;41.25;;;;;-147.17;100.00;-15917.19;5013138;28;53791;-60
2023/04/17 10:51:20;;;;;;;;;52.00;41.25;;;;;-147.17;100.00;-15917.19;5031452;28;51140;-60
2023/04/17 10:53:47;;;;;;;;;51.25;39.00;;;;;-147.17;100.00;-15917.19;5031008;28;51264;-59